Time,TemperatureF,DewpointF,PressureIn,WindDirection,WindDirectionDegrees,WindSpeedMPH,WindSpeedGustMPH,Humidity,HourlyPrecipIn,Conditions,Clouds,dailyrainin,SoftwareType,DateUTC
2013-11-28 00:07:00,35.2,32.0,29.18,North,-999,1.6,-999.0,88,-99.99,,,-99.99,Acu-Link.com,2013-11-28 05:07:00,
2013-11-28 00:22:00,35.5,31.7,29.19,North,-999,0.0,-999.0,86,-99.99,,,-99.99,Acu-Link.com,2013-11-28 05:22:00,
2013-11-28 00:37:00,35.8,31.4,29.21,North,-999,0.0,-999.0,84,-99.99,,,-99.99,Acu-Link.com,2013-11-28 05:37:00,
2013-11-28 00:53:00,35.6,30.7,29.22,North,-999,3.2,-999.0,82,-99.99,,,-99.99,Acu-Link.com,2013-11-28 05:53:00,
2013-11-28 01:08:00,35.3,30.7,29.23,North,-999,3.2,-999.0,83,-99.99,,,-99.99,Acu-Link.com,2013-11-28 06:08:00,
2013-11-28 01:24:00,35.3,31.2,29.26,North,-999,4.8,-999.0,85,-99.99,,,-99.99,Acu-Link.com,2013-11-28 06:24:00,
2013-11-28 01:39:00,35.8,30.9,29.27,North,-999,6.4,-999.0,82,-99.99,,,-99.99,Acu-Link.com,2013-11-28 06:39:00,
2013-11-28 01:54:00,35.8,30.2,29.29,North,-999,4.8,-999.0,80,-99.99,,,-99.99,Acu-Link.com,2013-11-28 06:54:00,
2013-11-28 02:09:00,35.6,29.7,29.30,North,-999,0.0,-999.0,79,-99.99,,,-99.99,Acu-Link.com,2013-11-28 07:09:00,
2013-11-28 02:25:00,35.8,29.3,29.33,North,-999,3.2,-999.0,77,-99.99,,,-99.99,Acu-Link.com,2013-11-28 07:25:00,
2013-11-28 02:40:00,35.7,29.2,29.32,North,-999,1.6,-999.0,77,-99.99,,,-99.99,Acu-Link.com,2013-11-28 07:40:00,
2013-11-28 02:55:00,35.8,28.3,29.34,North,-999,4.8,-999.0,74,-99.99,,,-99.99,Acu-Link.com,2013-11-28 07:55:00,
2013-11-28 03:10:00,35.2,28.1,29.35,North,-999,1.6,-999.0,75,-99.99,,,-99.99,Acu-Link.com,2013-11-28 08:10:00,
2013-11-28 03:25:00,35.0,27.6,29.35,North,-999,3.2,-999.0,74,-99.99,,,-99.99,Acu-Link.com,2013-11-28 08:25:00,
2013-11-28 03:41:00,34.6,27.2,29.38,North,-999,1.6,-999.0,74,-99.99,,,-99.99,Acu-Link.com,2013-11-28 08:41:00,
2013-11-28 03:56:00,34.3,27.2,29.39,North,-999,1.6,-999.0,75,-99.99,,,-99.99,Acu-Link.com,2013-11-28 08:56:00,
2013-11-28 04:11:00,33.7,27.3,29.41,North,-999,0.0,-999.0,77,-99.99,,,-99.99,Acu-Link.com,2013-11-28 09:11:00,
2013-11-28 04:26:00,33.8,28.0,29.42,North,-999,0.0,-999.0,79,-99.99,,,-99.99,Acu-Link.com,2013-11-28 09:26:00,
2013-11-28 04:41:00,33.9,28.4,29.43,North,-999,8.0,-999.0,80,-99.99,,,-99.99,Acu-Link.com,2013-11-28 09:41:00,
2013-11-28 04:57:00,34.4,27.6,29.46,North,-999,4.8,-999.0,76,-99.99,,,-99.99,Acu-Link.com,2013-11-28 09:57:00,
2013-11-28 05:12:00,34.2,26.5,29.48,North,-999,1.6,-999.0,73,-99.99,,,-99.99,Acu-Link.com,2013-11-28 10:12:00,
2013-11-28 05:27:00,33.8,25.7,29.49,North,-999,6.4,-999.0,72,-99.99,,,-99.99,Acu-Link.com,2013-11-28 10:27:00,
2013-11-28 05:43:00,33.3,23.9,29.52,North,-999,3.2,-999.0,68,-99.99,,,-99.99,Acu-Link.com,2013-11-28 10:43:00,
2013-11-28 05:58:00,33.1,24.1,29.53,North,-999,1.6,-999.0,69,-99.99,,,-99.99,Acu-Link.com,2013-11-28 10:58:00,
2013-11-28 06:13:00,32.2,23.5,29.55,North,-999,6.4,-999.0,70,-99.99,,,-99.99,Acu-Link.com,2013-11-28 11:13:00,
2013-11-28 06:28:00,31.2,22.9,29.56,North,-999,4.8,-999.0,71,-99.99,,,-99.99,Acu-Link.com,2013-11-28 11:28:00,
2013-11-28 06:43:00,30.7,21.4,29.58,North,-999,4.8,-999.0,68,-99.99,,,-99.99,Acu-Link.com,2013-11-28 11:43:00,
2013-11-28 06:59:00,30.3,20.7,29.60,North,-999,4.8,-999.0,67,-99.99,,,-99.99,Acu-Link.com,2013-11-28 11:59:00,
2013-11-28 07:14:00,30.0,20.4,29.63,North,-999,3.2,-999.0,67,-99.99,,,-99.99,Acu-Link.com,2013-11-28 12:14:00,
2013-11-28 07:29:00,29.7,19.8,29.64,North,-999,0.0,-999.0,66,-99.99,,,-99.99,Acu-Link.com,2013-11-28 12:29:00,
2013-11-28 07:44:00,29.5,19.2,29.66,North,-999,8.0,-999.0,65,-99.99,,,-99.99,Acu-Link.com,2013-11-28 12:44:00,
2013-11-28 07:59:00,29.3,19.0,29.68,North,-999,0.0,-999.0,65,-99.99,,,-99.99,Acu-Link.com,2013-11-28 12:59:00,
2013-11-28 08:15:00,29.3,18.7,29.70,North,-999,3.2,-999.0,64,-99.99,,,-99.99,Acu-Link.com,2013-11-28 13:15:00,
2013-11-28 08:30:00,29.4,18.8,29.72,North,-999,4.8,-999.0,64,-99.99,,,-99.99,Acu-Link.com,2013-11-28 13:30:00,
2013-11-28 08:45:00,29.4,18.4,29.73,North,-999,8.0,-999.0,63,-99.99,,,-99.99,Acu-Link.com,2013-11-28 13:45:00,
2013-11-28 09:01:00,29.3,17.5,29.75,North,-999,1.6,-999.0,61,-99.99,,,-99.99,Acu-Link.com,2013-11-28 14:01:00,
2013-11-28 09:16:00,29.6,17.4,29.76,North,-999,8.0,-999.0,60,-99.99,,,-99.99,Acu-Link.com,2013-11-28 14:16:00,
2013-11-28 09:31:00,30.2,17.6,29.78,North,-999,6.4,-999.0,59,-99.99,,,-99.99,Acu-Link.com,2013-11-28 14:31:00,
2013-11-28 09:46:00,30.9,17.1,29.79,North,-999,3.2,-999.0,56,-99.99,,,-99.99,Acu-Link.com,2013-11-28 14:46:00,
2013-11-28 10:01:00,30.9,17.1,29.80,North,-999,6.4,-999.0,56,-99.99,,,-99.99,Acu-Link.com,2013-11-28 15:01:00,
2013-11-28 10:17:00,30.9,16.2,29.81,North,-999,11.2,-999.0,54,-99.99,,,-99.99,Acu-Link.com,2013-11-28 15:17:00,
2013-11-28 10:32:00,31.2,14.8,29.81,North,-999,3.2,-999.0,50,-99.99,,,-99.99,Acu-Link.com,2013-11-28 15:32:00,
2013-11-28 10:47:00,31.8,14.8,29.83,North,-999,9.6,-999.0,49,-99.99,,,-99.99,Acu-Link.com,2013-11-28 15:47:00,
2013-11-28 11:02:00,33.2,16.1,29.83,North,-999,6.4,-999.0,49,-99.99,,,-99.99,Acu-Link.com,2013-11-28 16:02:00,
2013-11-28 11:18:00,33.7,15.6,29.84,North,-999,6.4,-999.0,47,-99.99,,,-99.99,Acu-Link.com,2013-11-28 16:18:00,
2013-11-28 11:33:00,33.2,14.7,29.86,North,-999,6.4,-999.0,46,-99.99,,,-99.99,Acu-Link.com,2013-11-28 16:33:00,
2013-11-28 11:48:00,32.6,14.1,29.86,North,-999,8.0,-999.0,46,-99.99,,,-99.99,Acu-Link.com,2013-11-28 16:48:00,
2013-11-28 12:03:00,32.6,13.1,29.86,North,-999,6.4,-999.0,44,-99.99,,,-99.99,Acu-Link.com,2013-11-28 17:03:00,
2013-11-28 12:19:00,33.4,12.8,29.88,North,-999,9.6,-999.0,42,-99.99,,,-99.99,Acu-Link.com,2013-11-28 17:19:00,
2013-11-28 12:34:00,33.1,12.0,29.88,North,-999,9.6,-999.0,41,-99.99,,,-99.99,Acu-Link.com,2013-11-28 17:34:00,
2013-11-28 12:49:00,32.7,10.5,29.90,North,-999,6.4,-999.0,39,-99.99,,,-99.99,Acu-Link.com,2013-11-28 17:49:00,
2013-11-28 13:04:00,32.1,11.1,29.91,North,-999,6.4,-999.0,41,-99.99,,,-99.99,Acu-Link.com,2013-11-28 18:04:00,
2013-11-28 13:20:00,32.4,10.8,29.91,North,-999,1.6,-999.0,40,-99.99,,,-99.99,Acu-Link.com,2013-11-28 18:20:00,
2013-11-28 13:35:00,33.0,11.9,29.92,North,-999,6.4,-999.0,41,-99.99,,,-99.99,Acu-Link.com,2013-11-28 18:35:00,
2013-11-28 13:50:00,30.4,9.0,29.92,North,-999,8.0,-999.0,40,-99.99,,,-99.99,Acu-Link.com,2013-11-28 18:50:00,
2013-11-28 14:05:00,30.2,8.8,29.93,North,-999,6.4,-999.0,40,-99.99,,,-99.99,Acu-Link.com,2013-11-28 19:05:00,
2013-11-28 14:21:00,29.4,8.1,29.94,North,-999,6.4,-999.0,40,-99.99,,,-99.99,Acu-Link.com,2013-11-28 19:21:00,
2013-11-28 14:36:00,29.2,7.9,29.94,North,-999,4.8,-999.0,40,-99.99,,,-99.99,Acu-Link.com,2013-11-28 19:36:00,
2013-11-28 14:51:00,29.2,7.4,29.95,North,-999,3.2,-999.0,39,-99.99,,,-99.99,Acu-Link.com,2013-11-28 19:51:00,
2013-11-28 15:06:00,29.2,7.4,29.97,North,-999,9.6,-999.0,39,-99.99,,,-99.99,Acu-Link.com,2013-11-28 20:06:00,
2013-11-28 15:22:00,29.2,7.9,29.99,North,-999,0.0,-999.0,40,-99.99,,,-99.99,Acu-Link.com,2013-11-28 20:22:00,
2013-11-28 15:37:00,28.9,7.6,30.00,North,-999,0.0,-999.0,40,-99.99,,,-99.99,Acu-Link.com,2013-11-28 20:37:00,
2013-11-28 15:52:00,28.4,7.2,30.02,North,-999,0.0,-999.0,40,-99.99,,,-99.99,Acu-Link.com,2013-11-28 20:52:00,
2013-11-28 16:07:00,27.5,8.0,30.02,North,-999,0.0,-999.0,43,-99.99,,,-99.99,Acu-Link.com,2013-11-28 21:07:00,
2013-11-28 16:22:00,27.0,8.0,30.04,North,-999,0.0,-999.0,44,-99.99,,,-99.99,Acu-Link.com,2013-11-28 21:22:00,
2013-11-28 16:38:00,26.4,8.5,30.05,North,-999,0.0,-999.0,46,-99.99,,,-99.99,Acu-Link.com,2013-11-28 21:38:00,
2013-11-28 16:53:00,26.1,8.7,30.06,North,-999,0.0,-999.0,47,-99.99,,,-99.99,Acu-Link.com,2013-11-28 21:53:00,
2013-11-28 17:08:00,26.0,8.6,30.07,North,-999,0.0,-999.0,47,-99.99,,,-99.99,Acu-Link.com,2013-11-28 22:08:00,
2013-11-28 17:23:00,26.0,8.1,30.09,North,-999,0.0,-999.0,46,-99.99,,,-99.99,Acu-Link.com,2013-11-28 22:23:00,
2013-11-28 17:39:00,25.8,8.9,30.10,North,-999,0.0,-999.0,48,-99.99,,,-99.99,Acu-Link.com,2013-11-28 22:39:00,
2013-11-28 17:54:00,25.8,8.9,30.12,North,-999,0.0,-999.0,48,-99.99,,,-99.99,Acu-Link.com,2013-11-28 22:54:00,
2013-11-28 18:09:00,25.7,8.8,30.13,North,-999,3.2,-999.0,48,-99.99,,,-99.99,Acu-Link.com,2013-11-28 23:09:00,
2013-11-28 18:24:00,25.5,9.0,30.13,North,-999,0.0,-999.0,49,-99.99,,,-99.99,Acu-Link.com,2013-11-28 23:24:00,
2013-11-28 18:40:00,25.2,9.2,30.14,North,-999,0.0,-999.0,50,-99.99,,,-99.99,Acu-Link.com,2013-11-28 23:40:00,
2013-11-28 18:55:00,24.7,9.2,30.15,North,-999,0.0,-999.0,51,-99.99,,,-99.99,Acu-Link.com,2013-11-28 23:55:00,
2013-11-28 19:10:00,24.9,9.4,30.16,North,-999,0.0,-999.0,51,-99.99,,,-99.99,Acu-Link.com,2013-11-29 00:10:00,
2013-11-28 19:25:00,24.6,9.1,30.16,North,-999,0.0,-999.0,51,-99.99,,,-99.99,Acu-Link.com,2013-11-29 00:25:00,
2013-11-28 19:41:00,24.7,9.2,30.17,North,-999,0.0,-999.0,51,-99.99,,,-99.99,Acu-Link.com,2013-11-29 00:41:00,
2013-11-28 19:56:00,24.2,9.1,30.17,North,-999,0.0,-999.0,52,-99.99,,,-99.99,Acu-Link.com,2013-11-29 00:56:00,
2013-11-28 20:11:00,23.8,9.2,30.18,North,-999,0.0,-999.0,53,-99.99,,,-99.99,Acu-Link.com,2013-11-29 01:11:00,
2013-11-28 20:26:00,23.8,8.8,30.19,North,-999,0.0,-999.0,52,-99.99,,,-99.99,Acu-Link.com,2013-11-29 01:26:00,
2013-11-28 20:42:00,23.7,9.1,30.20,North,-999,0.0,-999.0,53,-99.99,,,-99.99,Acu-Link.com,2013-11-29 01:42:00,
2013-11-28 20:57:00,23.5,8.5,30.20,North,-999,0.0,-999.0,52,-99.99,,,-99.99,Acu-Link.com,2013-11-29 01:57:00,
2013-11-28 21:12:00,22.8,9.1,30.21,North,-999,0.0,-999.0,55,-99.99,,,-99.99,Acu-Link.com,2013-11-29 02:12:00,
2013-11-28 21:27:00,22.7,9.0,30.21,North,-999,0.0,-999.0,55,-99.99,,,-99.99,Acu-Link.com,2013-11-29 02:27:00,
2013-11-28 21:42:00,22.3,9.0,30.21,North,-999,0.0,-999.0,56,-99.99,,,-99.99,Acu-Link.com,2013-11-29 02:42:00,
2013-11-28 21:58:00,22.3,9.0,30.21,North,-999,0.0,-999.0,56,-99.99,,,-99.99,Acu-Link.com,2013-11-29 02:58:00,
2013-11-28 22:13:00,22.1,8.8,30.22,North,-999,0.0,-999.0,56,-99.99,,,-99.99,Acu-Link.com,2013-11-29 03:13:00,
2013-11-28 22:28:00,21.8,8.9,30.22,North,-999,0.0,-999.0,57,-99.99,,,-99.99,Acu-Link.com,2013-11-29 03:28:00,
2013-11-28 22:44:00,21.5,8.7,30.23,North,-999,0.0,-999.0,57,-99.99,,,-99.99,Acu-Link.com,2013-11-29 03:44:00,
2013-11-28 22:59:00,20.7,8.7,30.23,North,-999,0.0,-999.0,59,-99.99,,,-99.99,Acu-Link.com,2013-11-29 03:59:00,
2013-11-28 23:14:00,20.5,8.9,30.24,North,-999,0.0,-999.0,60,-99.99,,,-99.99,Acu-Link.com,2013-11-29 04:14:00,
2013-11-28 23:29:00,20.8,9.1,30.24,North,-999,0.0,-999.0,60,-99.99,,,-99.99,Acu-Link.com,2013-11-29 04:29:00,
2013-11-28 23:44:00,20.7,9.0,30.24,North,-999,0.0,-999.0,60,-99.99,,,-99.99,Acu-Link.com,2013-11-29 04:44:00,